Wetterdaten: Woche 03.09.12 - 09.09.12 (KW36)
Datum Zeit Temperatur Luftfeuchte Luftdruck Niederschlag Windrichtung Sonnenschein Solar Wind
03.09.2012 00:00 13,6 C 98 % 1023,0 hPa 0,0 l/m N 0,00 h 0 W/m 0,0 km/h (0 Bft)
03.09.2012 01:00 13,6 C 98 % 1022,8 hPa 0,0 l/m N 0,00 h 0 W/m 1,1 km/h (0 Bft)
03.09.2012 02:00 13,5 C 98 % 1022,2 hPa 0,0 l/m N-NO 0,00 h 0 W/m 1,1 km/h (0 Bft)
03.09.2012 03:00 13,2 C 98 % 1021,8 hPa 0,0 l/m N 0,00 h 0 W/m 2,3 km/h (1 Bft)
03.09.2012 04:00 13,2 C 98 % 1021,5 hPa 0,0 l/m N-NO 0,00 h 0 W/m 1,2 km/h (1 Bft)
03.09.2012 05:00 13,1 C 98 % 1021,2 hPa 0,0 l/m N-NO 0,00 h 0 W/m 2,9 km/h (1 Bft)
03.09.2012 06:00 13,1 C 98 % 1021,1 hPa 0,0 l/m N 0,00 h 0 W/m 2,1 km/h (1 Bft)
03.09.2012 07:00 13,1 C 99 % 1021,2 hPa 0,0 l/m N-NO 0,00 h 11 W/m 3,6 km/h (1 Bft)
03.09.2012 08:00 13,5 C 99 % 1020,9 hPa 0,0 l/m NO 0,00 h 30 W/m 9,1 km/h (2 Bft)
03.09.2012 09:00 14,0 C 99 % 1020,6 hPa 0,0 l/m NO 0,00 h 78 W/m 10,9 km/h (2 Bft)
03.09.2012 10:00 15,0 C 97 % 1020,4 hPa 0,0 l/m O-NO 0,00 h 148 W/m 10,6 km/h (2 Bft)
03.09.2012 11:00 16,6 C 91 % 1020,3 hPa 0,0 l/m NO 0,00 h 238 W/m 13,0 km/h (3 Bft)
03.09.2012 12:00 18,0 C 83 % 1019,9 hPa 0,0 l/m O-NO 0,08 h 363 W/m 15,3 km/h (3 Bft)
03.09.2012 13:00 18,8 C 78 % 1019,3 hPa 0,0 l/m O-NO 0,00 h 242 W/m 17,7 km/h (3 Bft)
03.09.2012 14:00 19,2 C 76 % 1019,2 hPa 0,0 l/m O-NO 0,00 h 249 W/m 16,2 km/h (3 Bft)
03.09.2012 15:00 19,2 C 75 % 1018,7 hPa 0,0 l/m O-NO 0,00 h 126 W/m 15,7 km/h (3 Bft)
03.09.2012 16:00 19,1 C 77 % 1018,5 hPa 0,0 l/m NO 0,00 h 121 W/m 14,4 km/h (3 Bft)
03.09.2012 17:00 18,9 C 77 % 1018,4 hPa 0,0 l/m O-NO 0,00 h 44 W/m 12,9 km/h (3 Bft)
03.09.2012 18:00 18,5 C 80 % 1017,9 hPa 0,0 l/m O-NO 0,00 h 29 W/m 10,7 km/h (2 Bft)
03.09.2012 19:00 18,2 C 82 % 1017,9 hPa 0,0 l/m O-NO 0,00 h 8 W/m 6,3 km/h (2 Bft)
03.09.2012 20:00 17,8 C 85 % 1018,2 hPa 0,0 l/m NO 0,00 h 0 W/m 5,9 km/h (2 Bft)
03.09.2012 21:00 17,4 C 88 % 1018,4 hPa 0,0 l/m N-NO 0,00 h 0 W/m 7,2 km/h (2 Bft)
03.09.2012 22:00 17,1 C 90 % 1018,4 hPa 0,0 l/m N-NO 0,00 h 0 W/m 8,3 km/h (2 Bft)
03.09.2012 23:00 16,7 C 91 % 1018,3 hPa 0,0 l/m NO 0,00 h 0 W/m 8,2 km/h (2 Bft)
04.09.2012 00:00 16,7 C 93 % 1018,4 hPa 0,0 l/m NO 0,00 h 0 W/m 7,0 km/h (2 Bft)
04.09.2012 01:00 16,6 C 93 % 1018,0 hPa 0,0 l/m N 0,00 h 0 W/m 2,5 km/h (1 Bft)
04.09.2012 02:00 16,3 C 94 % 1017,6 hPa 0,0 l/m NO 0,00 h 0 W/m 5,9 km/h (2 Bft)
04.09.2012 03:00 16,4 C 95 % 1017,2 hPa 0,0 l/m N-NO 0,00 h 0 W/m 7,4 km/h (2 Bft)
04.09.2012 04:00 16,3 C 95 % 1016,8 hPa 0,0 l/m N-NO 0,00 h 0 W/m 9,0 km/h (2 Bft)
04.09.2012 05:00 16,1 C 95 % 1016,8 hPa 0,0 l/m N-NO 0,00 h 0 W/m 13,2 km/h (3 Bft)
04.09.2012 06:00 16,1 C 92 % 1016,7 hPa 0,0 l/m NO 0,00 h 5 W/m 14,6 km/h (3 Bft)
04.09.2012 07:00 15,9 C 92 % 1016,9 hPa 0,0 l/m NO 0,00 h 20 W/m 11,3 km/h (2 Bft)
04.09.2012 08:00 16,0 C 93 % 1016,9 hPa 0,0 l/m NO 0,00 h 51 W/m 12,5 km/h (3 Bft)
04.09.2012 09:00 16,5 C 92 % 1017,1 hPa 0,0 l/m O-NO 0,00 h 80 W/m 13,3 km/h (3 Bft)
04.09.2012 10:00 17,2 C 89 % 1017,3 hPa 0,0 l/m O-NO 0,00 h 123 W/m 14,5 km/h (3 Bft)
04.09.2012 11:00 18,4 C 84 % 1017,2 hPa 0,0 l/m O-NO 0,00 h 221 W/m 16,2 km/h (3 Bft)
04.09.2012 12:00 19,6 C 79 % 1016,7 hPa 0,0 l/m O-NO 0,00 h 259 W/m 21,0 km/h (4 Bft)
04.09.2012 13:00 21,0 C 74 % 1016,5 hPa 0,0 l/m NO 0,25 h 399 W/m 21,2 km/h (4 Bft)
04.09.2012 14:00 21,5 C 71 % 1016,6 hPa 0,0 l/m NO 0,17 h 292 W/m 19,2 km/h (3 Bft)
04.09.2012 15:00 21,6 C 71 % 1016,2 hPa 0,0 l/m O-NO 0,08 h 248 W/m 17,3 km/h (3 Bft)
04.09.2012 16:00 21,4 C 71 % 1015,9 hPa 0,0 l/m NO 0,00 h 188 W/m 18,6 km/h (3 Bft)
04.09.2012 17:00 21,0 C 73 % 1015,6 hPa 0,0 l/m NO 0,08 h 148 W/m 17,6 km/h (3 Bft)
04.09.2012 18:00 20,7 C 74 % 1015,6 hPa 0,0 l/m O-NO 0,25 h 107 W/m 14,4 km/h (3 Bft)
04.09.2012 19:00 20,0 C 77 % 1015,7 hPa 0,0 l/m O-NO 0,00 h 12 W/m 11,4 km/h (2 Bft)
04.09.2012 20:00 19,2 C 80 % 1016,2 hPa 0,0 l/m NO 0,00 h 0 W/m 9,5 km/h (2 Bft)
04.09.2012 21:00 18,8 C 82 % 1016,5 hPa 0,0 l/m NO 0,00 h 0 W/m 10,5 km/h (2 Bft)
04.09.2012 22:00 18,5 C 84 % 1016,4 hPa 0,0 l/m O-NO 0,00 h 0 W/m 10,3 km/h (2 Bft)
04.09.2012 23:00 18,1 C 85 % 1016,3 hPa 0,0 l/m O-NO 0,00 h 0 W/m 6,0 km/h (2 Bft)
05.09.2012 00:00 17,8 C 86 % 1016,3 hPa 0,0 l/m NO 0,00 h 0 W/m 2,7 km/h (1 Bft)
05.09.2012 01:00 17,0 C 87 % 1016,1 hPa 0,0 l/m N 0,00 h 0 W/m 1,5 km/h (1 Bft)
05.09.2012 02:00 15,8 C 89 % 1015,8 hPa 0,0 l/m NO 0,00 h 0 W/m 3,6 km/h (1 Bft)
05.09.2012 03:00 15,0 C 93 % 1015,7 hPa 0,0 l/m NO 0,00 h 0 W/m 4,8 km/h (1 Bft)
05.09.2012 04:00 14,9 C 94 % 1015,5 hPa 0,0 l/m NO 0,00 h 0 W/m 4,5 km/h (1 Bft)
05.09.2012 05:00 15,0 C 96 % 1015,2 hPa 0,0 l/m NO 0,00 h 0 W/m 6,4 km/h (2 Bft)
05.09.2012 06:00 15,0 C 95 % 1015,2 hPa 0,0 l/m N 0,00 h 0 W/m 3,9 km/h (1 Bft)
05.09.2012 07:00 15,0 C 94 % 1015,6 hPa 0,0 l/m N-NO 0,00 h 18 W/m 4,4 km/h (1 Bft)
05.09.2012 08:00 15,3 C 93 % 1015,9 hPa 0,0 l/m N-NO 0,00 h 45 W/m 5,7 km/h (1 Bft)
05.09.2012 09:00 16,1 C 92 % 1016,0 hPa 0,0 l/m N-NO 0,00 h 94 W/m 5,5 km/h (1 Bft)
05.09.2012 10:00 17,2 C 87 % 1016,4 hPa 0,0 l/m O-NO 0,00 h 115 W/m 6,0 km/h (2 Bft)
05.09.2012 11:00 17,7 C 86 % 1016,4 hPa 0,0 l/m NO 0,00 h 117 W/m 6,0 km/h (2 Bft)
05.09.2012 12:00 18,1 C 84 % 1016,3 hPa 0,0 l/m NO 0,00 h 183 W/m 9,4 km/h (2 Bft)
05.09.2012 13:00 19,8 C 74 % 1016,3 hPa 0,0 l/m NO 0,33 h 438 W/m 11,2 km/h (2 Bft)
05.09.2012 14:00 21,5 C 65 % 1016,0 hPa 0,0 l/m O-NO 0,83 h 579 W/m 11,7 km/h (2 Bft)
05.09.2012 15:00 21,4 C 65 % 1015,8 hPa 0,0 l/m O 0,17 h 224 W/m 8,6 km/h (2 Bft)
05.09.2012 16:00 21,8 C 64 % 1015,7 hPa 0,0 l/m O-SO 0,42 h 314 W/m 8,2 km/h (2 Bft)
05.09.2012 17:00 21,9 C 64 % 1015,7 hPa 0,0 l/m O 0,33 h 181 W/m 5,9 km/h (2 Bft)
05.09.2012 18:00 21,1 C 74 % 1015,8 hPa 0,0 l/m N 0,00 h 36 W/m 0,5 km/h (0 Bft)
05.09.2012 19:00 19,8 C 80 % 1016,0 hPa 0,0 l/m N 0,00 h 12 W/m 0,7 km/h (0 Bft)
05.09.2012 20:00 18,5 C 83 % 1016,8 hPa 0,0 l/m N 0,00 h 0 W/m 0,8 km/h (0 Bft)
05.09.2012 21:00 17,6 C 85 % 1017,6 hPa 0,0 l/m N-NW 0,00 h 0 W/m 4,7 km/h (1 Bft)
05.09.2012 22:00 17,0 C 85 % 1018,2 hPa 0,0 l/m N 0,00 h 0 W/m 9,8 km/h (2 Bft)
05.09.2012 23:00 16,4 C 86 % 1018,7 hPa 0,0 l/m N 0,00 h 0 W/m 8,6 km/h (2 Bft)
06.09.2012 00:00 15,9 C 87 % 1018,8 hPa 0,0 l/m N-NO 0,00 h 0 W/m 8,4 km/h (2 Bft)
06.09.2012 01:00 15,7 C 86 % 1019,1 hPa 0,0 l/m N-NO 0,00 h 0 W/m 7,5 km/h (2 Bft)
06.09.2012 02:00 15,2 C 87 % 1019,3 hPa 0,0 l/m N 0,00 h 0 W/m 4,8 km/h (1 Bft)
06.09.2012 03:00 15,0 C 90 % 1019,6 hPa 0,0 l/m N 0,00 h 0 W/m 2,9 km/h (1 Bft)
06.09.2012 04:00 15,0 C 91 % 1019,7 hPa 0,0 l/m N 0,00 h 0 W/m 1,1 km/h (0 Bft)
06.09.2012 05:00 15,0 C 91 % 1020,0 hPa 0,0 l/m O-NO 0,00 h 0 W/m 3,6 km/h (1 Bft)
06.09.2012 06:00 14,7 C 91 % 1020,6 hPa 0,0 l/m O-NO 0,00 h 0 W/m 9,9 km/h (2 Bft)
06.09.2012 07:00 13,8 C 92 % 1021,4 hPa 0,0 l/m NO 0,00 h 10 W/m 9,7 km/h (2 Bft)
06.09.2012 08:00 13,6 C 89 % 1021,9 hPa 0,0 l/m NO 0,00 h 45 W/m 9,3 km/h (2 Bft)
06.09.2012 09:00 14,3 C 86 % 1022,3 hPa 0,0 l/m N-NO 0,00 h 130 W/m 9,7 km/h (2 Bft)
06.09.2012 10:00 15,2 C 82 % 1022,7 hPa 0,0 l/m O 0,25 h 289 W/m 8,7 km/h (2 Bft)
06.09.2012 11:00 16,6 C 76 % 1023,0 hPa 0,0 l/m O 0,42 h 355 W/m 11,7 km/h (2 Bft)
06.09.2012 12:00 16,6 C 73 % 1023,1 hPa 0,0 l/m O-NO 0,00 h 181 W/m 10,7 km/h (2 Bft)
06.09.2012 13:00 17,5 C 68 % 1022,9 hPa 0,0 l/m NO 0,00 h 245 W/m 10,3 km/h (2 Bft)
06.09.2012 14:00 17,9 C 68 % 1022,9 hPa 0,0 l/m NO 0,00 h 193 W/m 10,2 km/h (2 Bft)
06.09.2012 15:00 18,3 C 65 % 1022,7 hPa 0,0 l/m O-SO 0,00 h 253 W/m 10,1 km/h (2 Bft)
06.09.2012 16:00 19,2 C 61 % 1022,4 hPa 0,0 l/m O 0,42 h 379 W/m 8,8 km/h (2 Bft)
06.09.2012 17:00 19,4 C 59 % 1022,3 hPa 0,0 l/m O-SO 0,92 h 384 W/m 8,4 km/h (2 Bft)
06.09.2012 18:00 19,6 C 57 % 1022,3 hPa 0,0 l/m O 0,75 h 169 W/m 6,5 km/h (2 Bft)
06.09.2012 19:00 17,9 C 69 % 1022,4 hPa 0,0 l/m N 0,08 h 20 W/m 0,9 km/h (0 Bft)
06.09.2012 20:00 15,0 C 77 % 1023,1 hPa 0,0 l/m N 0,00 h 0 W/m 1,3 km/h (1 Bft)
06.09.2012 21:00 13,0 C 83 % 1023,4 hPa 0,0 l/m N 0,00 h 0 W/m 0,1 km/h (0 Bft)
06.09.2012 22:00 11,7 C 86 % 1023,6 hPa 0,0 l/m N 0,00 h 0 W/m 0,1 km/h (0 Bft)
06.09.2012 23:00 10,9 C 89 % 1023,5 hPa 0,0 l/m N 0,00 h 0 W/m 0,1 km/h (0 Bft)
07.09.2012 00:00 10,2 C 91 % 1023,5 hPa 0,0 l/m N 0,00 h 0 W/m 1,1 km/h (0 Bft)
07.09.2012 01:00 9,8 C 91 % 1023,4 hPa 0,0 l/m N 0,00 h 0 W/m 0,8 km/h (0 Bft)
07.09.2012 02:00 9,3 C 92 % 1023,4 hPa 0,0 l/m N 0,00 h 0 W/m 0,7 km/h (0 Bft)
07.09.2012 03:00 8,7 C 92 % 1023,4 hPa 0,0 l/m N 0,00 h 0 W/m 0,0 km/h (0 Bft)
07.09.2012 04:00 8,1 C 92 % 1023,4 hPa 0,0 l/m N 0,00 h 0 W/m 0,0 km/h (0 Bft)
07.09.2012 05:00 7,6 C 92 % 1023,6 hPa 0,0 l/m N 0,00 h 0 W/m 0,3 km/h (0 Bft)
07.09.2012 06:00 7,2 C 93 % 1023,7 hPa 0,0 l/m N 0,00 h 6 W/m 0,0 km/h (0 Bft)
07.09.2012 07:00 7,3 C 95 % 1024,2 hPa 0,0 l/m N 0,00 h 43 W/m 0,0 km/h (0 Bft)
07.09.2012 08:00 8,8 C 95 % 1024,6 hPa 0,0 l/m N 0,92 h 191 W/m 0,7 km/h (0 Bft)
07.09.2012 09:00 12,5 C 88 % 1024,5 hPa 0,0 l/m N 1,00 h 366 W/m 0,0 km/h (0 Bft)
07.09.2012 10:00 15,1 C 85 % 1024,5 hPa 0,0 l/m S 1,00 h 511 W/m 4,3 km/h (1 Bft)
07.09.2012 11:00 17,0 C 73 % 1024,2 hPa 0,0 l/m S 1,00 h 660 W/m 6,4 km/h (2 Bft)
07.09.2012 12:00 18,9 C 62 % 1023,9 hPa 0,0 l/m O-SO 1,00 h 742 W/m 8,3 km/h (2 Bft)
07.09.2012 13:00 20,3 C 57 % 1023,5 hPa 0,0 l/m N-NO 1,00 h 770 W/m 7,4 km/h (2 Bft)
07.09.2012 14:00 21,3 C 55 % 1023,2 hPa 0,0 l/m W-NW 1,00 h 737 W/m 7,2 km/h (2 Bft)
07.09.2012 15:00 22,1 C 48 % 1022,8 hPa 0,0 l/m W-SW 1,00 h 673 W/m 7,4 km/h (2 Bft)
07.09.2012 16:00 22,5 C 42 % 1022,6 hPa 0,0 l/m N-NW 1,00 h 552 W/m 4,8 km/h (1 Bft)
07.09.2012 17:00 22,0 C 44 % 1022,4 hPa 0,0 l/m W-NW 1,00 h 391 W/m 4,1 km/h (1 Bft)
07.09.2012 18:00 20,4 C 60 % 1022,2 hPa 0,0 l/m N 0,92 h 190 W/m 1,2 km/h (1 Bft)
07.09.2012 19:00 16,8 C 79 % 1022,1 hPa 0,0 l/m N 0,00 h 17 W/m 0,1 km/h (0 Bft)
07.09.2012 20:00 14,5 C 84 % 1022,5 hPa 0,0 l/m N 0,00 h 0 W/m 0,0 km/h (0 Bft)
07.09.2012 21:00 13,3 C 90 % 1022,9 hPa 0,0 l/m N 0,00 h 0 W/m 0,3 km/h (0 Bft)
07.09.2012 22:00 12,6 C 92 % 1022,9 hPa 0,0 l/m N 0,00 h 0 W/m 0,1 km/h (0 Bft)
07.09.2012 23:00 11,8 C 94 % 1022,8 hPa 0,0 l/m N 0,00 h 0 W/m 0,4 km/h (0 Bft)
08.09.2012 00:00 11,5 C 94 % 1022,8 hPa 0,0 l/m N 0,00 h 0 W/m 0,0 km/h (0 Bft)
08.09.2012 01:00 10,9 C 93 % 1022,8 hPa 0,0 l/m N 0,00 h 0 W/m 0,4 km/h (0 Bft)
08.09.2012 02:00 10,2 C 94 % 1022,6 hPa 0,0 l/m N 0,00 h 0 W/m 0,1 km/h (0 Bft)
08.09.2012 03:00 9,8 C 94 % 1022,5 hPa 0,0 l/m N 0,00 h 0 W/m 0,1 km/h (0 Bft)
08.09.2012 04:00 9,5 C 94 % 1022,1 hPa 0,0 l/m N 0,00 h 0 W/m 0,1 km/h (0 Bft)
08.09.2012 05:00 9,0 C 94 % 1021,9 hPa 0,0 l/m N 0,00 h 0 W/m 0,0 km/h (0 Bft)
08.09.2012 06:00 8,3 C 94 % 1021,7 hPa 0,0 l/m N 0,00 h 6 W/m 0,1 km/h (0 Bft)
08.09.2012 07:00 8,5 C 96 % 1021,7 hPa 0,0 l/m N 0,00 h 39 W/m 0,5 km/h (0 Bft)
08.09.2012 08:00 11,0 C 92 % 1021,7 hPa 0,0 l/m W-NW 0,92 h 189 W/m 4,4 km/h (1 Bft)
08.09.2012 09:00 14,6 C 81 % 1021,7 hPa 0,0 l/m N 1,00 h 366 W/m 2,1 km/h (1 Bft)
08.09.2012 10:00 17,1 C 75 % 1021,5 hPa 0,0 l/m W-NW 1,00 h 507 W/m 3,3 km/h (1 Bft)
08.09.2012 11:00 19,2 C 67 % 1021,3 hPa 0,0 l/m O-NO 1,00 h 656 W/m 4,8 km/h (1 Bft)
08.09.2012 12:00 21,7 C 55 % 1020,6 hPa 0,0 l/m O 1,00 h 733 W/m 10,5 km/h (2 Bft)
08.09.2012 13:00 23,3 C 45 % 1019,8 hPa 0,0 l/m NO 1,00 h 762 W/m 10,5 km/h (2 Bft)
08.09.2012 14:00 24,3 C 37 % 1019,4 hPa 0,0 l/m O-SO 1,00 h 736 W/m 10,8 km/h (2 Bft)
08.09.2012 15:00 25,0 C 33 % 1019,0 hPa 0,0 l/m O-NO 1,00 h 660 W/m 12,0 km/h (2 Bft)
08.09.2012 16:00 25,2 C 36 % 1018,5 hPa 0,0 l/m O-NO 1,00 h 538 W/m 9,8 km/h (2 Bft)
08.09.2012 17:00 24,6 C 40 % 1018,0 hPa 0,0 l/m NO 1,00 h 381 W/m 9,9 km/h (2 Bft)
08.09.2012 18:00 23,8 C 42 % 1017,7 hPa 0,0 l/m O-NO 0,92 h 187 W/m 7,5 km/h (2 Bft)
08.09.2012 19:00 19,3 C 66 % 1017,7 hPa 0,0 l/m N 0,00 h 15 W/m 1,7 km/h (1 Bft)
08.09.2012 20:00 15,9 C 78 % 1018,0 hPa 0,0 l/m N 0,00 h 0 W/m 1,7 km/h (1 Bft)
08.09.2012 21:00 14,8 C 81 % 1018,3 hPa 0,0 l/m N 0,00 h 0 W/m 1,1 km/h (0 Bft)
08.09.2012 22:00 13,7 C 85 % 1018,2 hPa 0,0 l/m N 0,00 h 0 W/m 0,1 km/h (0 Bft)
08.09.2012 23:00 12,9 C 87 % 1018,0 hPa 0,0 l/m N 0,00 h 0 W/m 0,4 km/h (0 Bft)
09.09.2012 00:00 12,9 C 85 % 1017,8 hPa 0,0 l/m N 0,00 h 0 W/m 1,7 km/h (1 Bft)
09.09.2012 01:00 12,3 C 87 % 1017,5 hPa 0,0 l/m N 0,00 h 0 W/m 0,7 km/h (0 Bft)
09.09.2012 02:00 11,3 C 91 % 1017,2 hPa 0,0 l/m N 0,00 h 0 W/m 0,0 km/h (0 Bft)
09.09.2012 03:00 10,5 C 93 % 1017,1 hPa 0,0 l/m N 0,00 h 0 W/m 0,0 km/h (0 Bft)
09.09.2012 04:00 10,1 C 94 % 1016,9 hPa 0,0 l/m N 0,00 h 0 W/m 0,8 km/h (0 Bft)
09.09.2012 05:00 9,9 C 94 % 1016,6 hPa 0,0 l/m N 0,00 h 0 W/m 0,0 km/h (0 Bft)
09.09.2012 06:00 9,3 C 93 % 1016,5 hPa 0,0 l/m N 0,00 h 6 W/m 0,1 km/h (0 Bft)
09.09.2012 07:00 9,7 C 94 % 1016,5 hPa 0,0 l/m N 0,00 h 35 W/m 0,7 km/h (0 Bft)
09.09.2012 08:00 12,2 C 91 % 1016,7 hPa 0,0 l/m N 0,75 h 179 W/m 0,1 km/h (0 Bft)
09.09.2012 09:00 15,6 C 80 % 1016,6 hPa 0,0 l/m O 1,00 h 350 W/m 1,2 km/h (1 Bft)
09.09.2012 10:00 17,9 C 75 % 1016,7 hPa 0,0 l/m SO 0,92 h 486 W/m 7,0 km/h (2 Bft)
09.09.2012 11:00 19,5 C 72 % 1016,5 hPa 0,0 l/m SO 1,00 h 633 W/m 5,6 km/h (1 Bft)
09.09.2012 12:00 21,8 C 65 % 1016,0 hPa 0,0 l/m S-SW 1,00 h 712 W/m 6,4 km/h (2 Bft)
09.09.2012 13:00 23,5 C 59 % 1015,4 hPa 0,0 l/m S 1,00 h 738 W/m 6,8 km/h (2 Bft)
09.09.2012 14:00 24,9 C 55 % 1014,9 hPa 0,0 l/m S 1,00 h 713 W/m 5,5 km/h (1 Bft)
09.09.2012 15:00 25,6 C 49 % 1014,3 hPa 0,0 l/m W-NW 1,00 h 639 W/m 5,5 km/h (1 Bft)
09.09.2012 16:00 25,9 C 45 % 1014,0 hPa 0,0 l/m W 1,00 h 524 W/m 4,9 km/h (1 Bft)
09.09.2012 17:00 25,6 C 43 % 1013,7 hPa 0,0 l/m O-NO 1,00 h 360 W/m 2,4 km/h (1 Bft)
09.09.2012 18:00 23,5 C 59 % 1013,6 hPa 0,0 l/m N 0,83 h 167 W/m 1,6 km/h (1 Bft)
09.09.2012 19:00 19,2 C 80 % 1013,6 hPa 0,0 l/m N 0,08 h 14 W/m 0,3 km/h (0 Bft)
09.09.2012 20:00 17,3 C 85 % 1014,0 hPa 0,0 l/m N 0,00 h 0 W/m 0,0 km/h (0 Bft)
09.09.2012 21:00 16,1 C 90 % 1014,5 hPa 0,0 l/m N 0,00 h 0 W/m 0,0 km/h (0 Bft)
09.09.2012 22:00 15,3 C 93 % 1014,6 hPa 0,0 l/m N 0,00 h 0 W/m 0,0 km/h (0 Bft)
09.09.2012 23:00 14,6 C 95 % 1014,9 hPa 0,0 l/m N 0,00 h 0 W/m 0,0 km/h (0 Bft)
Min-Datum _ 07.09.12 08.09.12 09.09.12 - - - - 03.09.12
_ Min-Zeit 07:05 15:10 19:20 - - - - 00:00
Minimum _ 6,9 C 31 % 1013,4 hPa - - - - 0,0 km/h (0 Bft)
Max-Datum _ 09.09.12 03.09.12 07.09.12 03.09.12 - 03.09.12 04.09.12 04.09.12
_ Max-Zeit 16:10 06:55 08:40 00:00 - 12:20 13:50 13:05
Maximum _ 26,3 C 99 % 1024,7 hPa 0,0 l/m - 0,08 h 824 W/m 25,7 km/h
O-NO (4 Bft)
Durchschnitt _ 16,4 C 81 % 1019,1 hPa #0,0 l/m NO #38:05 h 274 W/m 5,9 km/h (2 Bft)